createdAt,value
2022-12-20T00:01:55.914Z,15.70
2022-12-20T00:06:53.943Z,11.52
2022-12-20T00:09:22.624Z,12.57
2022-12-20T00:14:19.223Z,13.98
2022-12-20T00:19:15.896Z,14.25
2022-12-20T00:21:45.850Z,13.18
2022-12-20T00:24:14.472Z,14.68
2022-12-20T00:31:40.032Z,14.98
2022-12-20T00:34:11.057Z,11.95
2022-12-20T00:36:41.605Z,12.55
2022-12-20T00:39:11.756Z,13.30
2022-12-20T00:41:40.261Z,13.73
2022-12-20T00:44:08.663Z,12.40
2022-12-20T00:46:37.282Z,13.45
2022-12-20T00:49:07.604Z,11.35
2022-12-20T00:51:36.084Z,12.40
2022-12-20T00:54:04.560Z,12.95
2022-12-20T00:56:34.398Z,12.48
2022-12-20T00:59:02.950Z,12.50
2022-12-20T01:01:34.979Z,12.10
2022-12-20T01:04:03.921Z,14.23
2022-12-20T01:09:01.771Z,16.90
2022-12-20T01:11:32.171Z,15.32
2022-12-20T01:14:04.211Z,12.65
2022-12-20T01:16:35.921Z,15.77
2022-12-20T01:19:05.151Z,14.57
2022-12-20T01:21:33.920Z,12.05
2022-12-20T01:24:02.820Z,14.27
2022-12-20T01:26:31.868Z,15.98
2022-12-20T01:29:01.955Z,14.32
2022-12-20T01:31:33.011Z,12.85
2022-12-20T01:36:31.483Z,15.18
2022-12-20T01:39:01.539Z,12.77
2022-12-20T01:41:32.101Z,14.05
2022-12-20T01:44:04.348Z,15.32
2022-12-20T01:46:34.317Z,16.60
2022-12-20T01:49:10.990Z,13.98
2022-12-20T01:51:44.765Z,17.90
2022-12-20T01:54:18.106Z,16.42
2022-12-20T01:56:50.949Z,15.48
2022-12-20T01:59:21.326Z,13.70
2022-12-20T02:01:51.038Z,16.52
2022-12-20T02:04:19.771Z,16.77
2022-12-20T02:09:17.262Z,15.57
2022-12-20T02:12:02.428Z,12.73
2022-12-20T02:14:49.443Z,14.18
2022-12-20T02:17:38.151Z,15.35
2022-12-20T02:21:00.185Z,13.90
2022-12-20T02:24:01.874Z,13.50
2022-12-20T02:26:47.746Z,13.07
2022-12-20T02:29:26.592Z,12.07
2022-12-20T02:32:04.298Z,11.95
2022-12-20T02:34:38.265Z,11.27
2022-12-20T02:37:07.048Z,9.35
2022-12-20T02:39:38.838Z,13.55
2022-12-20T02:42:10.421Z,12.43
2022-12-20T02:45:03.708Z,11.07
2022-12-20T02:47:39.659Z,10.70
2022-12-20T02:50:10.013Z,12.32
2022-12-20T02:52:42.535Z,12.57
2022-12-20T02:55:11.941Z,12.88
2022-12-20T02:57:53.358Z,11.82
2022-12-20T03:00:26.950Z,13.48
2022-12-20T03:03:14.527Z,13.23
2022-12-20T03:05:47.259Z,12.07
2022-12-20T03:08:19.336Z,13.27
2022-12-20T03:10:48.510Z,12.02
2022-12-20T03:13:17.735Z,13.48
2022-12-20T03:15:59.011Z,13.18
2022-12-20T03:18:29.043Z,13.85
2022-12-20T03:20:57.571Z,11.57
2022-12-20T03:23:26.051Z,12.02
2022-12-20T03:28:35.449Z,12.95
2022-12-20T03:31:04.245Z,10.95
2022-12-20T03:33:38.852Z,13.80
2022-12-20T03:36:10.182Z,16.15
2022-12-20T03:38:38.986Z,14.02
2022-12-20T03:41:10.161Z,13.55
2022-12-20T03:43:39.110Z,15.43
2022-12-20T03:46:07.910Z,13.32
2022-12-20T03:48:41.029Z,14.23
2022-12-20T03:51:11.653Z,13.85
2022-12-20T03:53:40.709Z,15.70
2022-12-20T03:56:09.798Z,14.75
2022-12-20T03:58:38.489Z,12.05
2022-12-20T04:01:19.480Z,14.65
2022-12-20T04:03:50.555Z,16.30
2022-12-20T04:06:20.575Z,13.50
2022-12-20T04:08:49.701Z,13.05
2022-12-20T04:11:25.221Z,17.70
2022-12-20T04:14:23.135Z,15.20
2022-12-20T04:16:52.520Z,14.98
2022-12-20T04:19:26.274Z,15.85
2022-12-20T04:22:00.850Z,15.20
2022-12-20T04:24:44.068Z,18.58
2022-12-20T04:27:38.638Z,15.43
2022-12-20T04:30:10.740Z,14.23
2022-12-20T04:32:39.322Z,14.70
2022-12-20T04:35:11.556Z,20.33
2022-12-20T04:37:43.713Z,18.63
2022-12-20T04:40:13.572Z,13.63
2022-12-20T04:42:48.915Z,17.77
2022-12-20T04:45:18.862Z,16.92
2022-12-20T04:47:48.168Z,15.90
2022-12-20T04:50:21.098Z,16.77
2022-12-20T04:53:06.893Z,15.63
2022-12-20T04:55:38.866Z,16.98
2022-12-20T04:58:08.318Z,20.25
2022-12-20T05:00:39.582Z,21.15
2022-12-20T05:03:21.632Z,21.52
2022-12-20T05:05:52.007Z,25.85
2022-12-20T05:08:20.916Z,24.13
2022-12-20T05:10:52.671Z,26.25
2022-12-20T05:15:53.398Z,25.65
2022-12-20T05:18:26.427Z,23.08
2022-12-20T05:21:20.342Z,23.52
2022-12-20T05:24:09.093Z,30.88
2022-12-20T05:27:00.732Z,29.33
2022-12-20T05:29:29.524Z,27.50
2022-12-20T05:31:58.435Z,27.58
2022-12-20T05:34:27.691Z,28.20
2022-12-20T05:36:58.814Z,31.33
2022-12-20T05:39:32.442Z,26.95
2022-12-20T05:42:05.115Z,33.45
2022-12-20T05:44:33.850Z,32.28
2022-12-20T05:47:06.698Z,35.13
2022-12-20T05:49:37.528Z,31.17
2022-12-20T05:52:10.965Z,31.38
2022-12-20T05:54:42.088Z,26.52
2022-12-20T05:57:17.049Z,31.65
2022-12-20T05:59:46.384Z,23.30
2022-12-20T06:02:25.012Z,36.72
2022-12-20T06:05:02.974Z,24.85
2022-12-20T06:07:33.713Z,26.55
2022-12-20T06:10:02.309Z,30.02
2022-12-20T06:12:46.505Z,27.65
2022-12-20T06:15:17.021Z,31.63
2022-12-20T06:17:45.747Z,28.35
2022-12-20T06:20:28.011Z,31.48
2022-12-20T06:22:59.470Z,27.02
2022-12-20T06:25:34.817Z,34.97
2022-12-20T06:28:03.739Z,29.58
2022-12-20T06:30:34.243Z,29.48
2022-12-20T06:33:20.469Z,26.15
2022-12-20T06:35:51.888Z,27.90
2022-12-20T06:38:24.084Z,29.85
2022-12-20T06:40:52.770Z,36.60
2022-12-20T06:43:21.354Z,34.00
2022-12-20T06:48:18.386Z,34.42
2022-12-20T06:50:55.622Z,27.15
2022-12-20T06:53:30.435Z,30.40
2022-12-20T06:55:58.955Z,32.65
2022-12-20T06:58:27.631Z,31.52
2022-12-20T07:08:22.313Z,33.28
2022-12-20T07:10:53.024Z,29.02
2022-12-20T07:13:21.785Z,40.20
2022-12-20T07:15:50.503Z,34.15
2022-12-20T07:18:18.925Z,33.83
2022-12-20T07:23:19.043Z,33.17
2022-12-20T07:25:56.632Z,30.00
2022-12-20T07:28:26.393Z,30.00
2022-12-20T07:30:55.377Z,32.55
2022-12-20T07:33:24.242Z,30.50
2022-12-20T07:36:00.954Z,32.42
2022-12-20T07:38:30.220Z,30.92
2022-12-20T07:41:00.297Z,29.42
2022-12-20T07:43:29.162Z,28.52
2022-12-20T07:45:58.376Z,27.55
2022-12-20T07:48:26.963Z,26.80
2022-12-20T07:50:59.871Z,32.35
2022-12-20T07:53:30.275Z,21.80
2022-12-20T07:56:01.814Z,25.60
2022-12-20T07:58:31.573Z,24.30
2022-12-20T08:01:00.376Z,23.95
2022-12-20T08:03:34.486Z,25.10
2022-12-20T08:06:06.152Z,27.23
2022-12-20T08:08:37.792Z,24.85
2022-12-20T08:11:10.453Z,23.23
2022-12-20T08:13:45.967Z,23.15
2022-12-20T08:16:15.319Z,19.90
2022-12-20T08:18:43.942Z,28.58
2022-12-20T08:21:13.273Z,24.10
2022-12-20T08:23:41.977Z,21.33
2022-12-20T08:26:12.316Z,22.80
2022-12-20T08:28:41.077Z,19.63
2022-12-20T08:31:10.928Z,20.13
2022-12-20T08:33:40.492Z,20.23
2022-12-20T08:36:11.995Z,22.88
2022-12-20T08:38:41.605Z,18.88
2022-12-20T08:41:13.680Z,17.85
2022-12-20T08:43:43.350Z,22.55
2022-12-20T08:46:12.815Z,20.30
2022-12-20T08:48:41.892Z,16.08
2022-12-20T08:51:11.924Z,19.30
2022-12-20T08:53:40.450Z,17.23
2022-12-20T08:58:40.254Z,18.83
2022-12-20T09:01:11.381Z,18.08
2022-12-20T09:03:40.685Z,15.88
2022-12-20T09:06:11.229Z,18.17
2022-12-20T09:08:40.836Z,17.65
2022-12-20T09:11:12.126Z,17.80
2022-12-20T09:13:44.345Z,17.05
2022-12-20T09:16:15.503Z,17.70
2022-12-20T09:18:44.506Z,16.05
2022-12-20T09:21:13.443Z,11.45
2022-12-20T09:23:42.194Z,17.95
2022-12-20T09:26:13.694Z,13.07
2022-12-20T09:28:44.337Z,14.57
2022-12-20T09:31:14.701Z,17.13
2022-12-20T09:33:44.036Z,15.07
2022-12-20T09:36:14.043Z,11.40
2022-12-20T09:38:42.879Z,16.52
2022-12-20T09:41:24.977Z,12.25
2022-12-20T09:43:56.228Z,10.27
2022-12-20T09:46:29.892Z,10.10
2022-12-20T09:48:59.319Z,11.05
2022-12-20T09:51:44.914Z,14.25
2022-12-20T09:54:22.727Z,11.88
2022-12-20T09:57:01.181Z,10.57
2022-12-20T10:02:43.582Z,13.20
2022-12-20T10:05:00.089Z,15.38
2022-12-20T10:07:40.365Z,15.40
2022-12-20T10:10:29.583Z,14.57
2022-12-20T10:13:08.003Z,8.90
2022-12-20T10:18:23.441Z,11.02
2022-12-20T10:21:05.403Z,8.85
2022-12-20T10:23:41.456Z,11.98
2022-12-20T10:26:12.006Z,12.00
2022-12-20T10:28:42.332Z,18.25
2022-12-20T10:31:15.698Z,13.15
2022-12-20T10:33:45.286Z,11.68
2022-12-20T10:36:23.372Z,13.10
2022-12-20T10:38:54.863Z,10.63
2022-12-20T10:41:25.358Z,13.02
2022-12-20T10:43:59.945Z,8.48
2022-12-20T10:46:41.673Z,11.45
2022-12-20T10:49:28.710Z,9.23
2022-12-20T10:52:00.100Z,11.23
2022-12-20T10:54:33.802Z,10.98
2022-12-20T10:57:04.712Z,10.85
2022-12-20T10:59:36.372Z,9.88
2022-12-20T11:02:43.022Z,10.73
2022-12-20T11:05:24.434Z,11.77
2022-12-20T11:10:46.613Z,8.80
2022-12-20T11:13:27.095Z,12.25
2022-12-20T11:16:01.706Z,11.27
2022-12-20T11:18:42.712Z,10.57
2022-12-20T11:21:28.384Z,17.95
2022-12-20T11:24:03.641Z,10.43
2022-12-20T11:26:44.235Z,10.98
2022-12-20T11:29:34.317Z,13.55
2022-12-20T11:32:11.152Z,10.70
2022-12-20T11:34:51.389Z,14.30
2022-12-20T11:37:22.959Z,10.43
2022-12-20T11:40:05.645Z,13.35
2022-12-20T11:42:49.319Z,10.93
2022-12-20T11:45:26.234Z,10.90
2022-12-20T11:48:44.312Z,11.40
2022-12-20T11:51:26.581Z,9.85
2022-12-20T11:54:01.560Z,12.65
2022-12-20T11:56:40.088Z,14.20
2022-12-20T11:59:19.896Z,14.45
2022-12-20T12:01:53.322Z,11.68
2022-12-20T12:04:26.907Z,18.45
2022-12-20T12:07:02.235Z,16.45
2022-12-20T12:09:37.708Z,15.77
2022-12-20T12:12:14.694Z,18.35
2022-12-20T12:14:51.754Z,13.87
2022-12-20T12:17:33.841Z,13.73
2022-12-20T12:20:21.375Z,15.68
2022-12-20T12:22:57.553Z,13.23
2022-12-20T12:25:30.545Z,14.77
2022-12-20T12:28:00.848Z,15.63
2022-12-20T12:30:37.754Z,15.23
2022-12-20T12:33:19.021Z,12.27
2022-12-20T12:36:07.167Z,12.98
2022-12-20T12:39:21.069Z,12.98
2022-12-20T12:42:20.842Z,10.30
2022-12-20T12:44:55.944Z,14.10
2022-12-20T12:47:40.217Z,15.02
2022-12-20T12:50:18.855Z,14.00
2022-12-20T12:52:55.446Z,12.52
2022-12-20T12:55:43.961Z,12.75
2022-12-20T12:58:34.855Z,11.93
2022-12-20T13:01:08.244Z,9.10
2022-12-20T13:03:41.398Z,14.77
2022-12-20T13:06:55.192Z,13.43
2022-12-20T13:09:39.015Z,14.70
2022-12-20T13:12:57.594Z,12.68
2022-12-20T13:16:05.475Z,13.40
2022-12-20T13:18:34.340Z,10.25
2022-12-20T13:21:32.079Z,11.80
2022-12-20T13:24:42.554Z,14.45
2022-12-20T13:27:36.662Z,15.52
2022-12-20T13:30:30.741Z,16.38
2022-12-20T13:33:24.134Z,13.63
2022-12-20T13:36:06.310Z,12.52
2022-12-20T13:38:58.491Z,14.75
2022-12-20T13:41:45.336Z,11.30
2022-12-20T13:44:42.080Z,12.40
2022-12-20T13:47:38.810Z,12.18
2022-12-20T13:50:35.677Z,15.00
2022-12-20T13:53:05.948Z,10.95
2022-12-20T13:55:38.690Z,14.10
2022-12-20T13:58:14.527Z,12.75
2022-12-20T14:00:43.283Z,9.85
2022-12-20T14:03:22.453Z,9.73
2022-12-20T14:05:53.586Z,11.15
2022-12-20T14:08:27.266Z,12.52
2022-12-20T14:10:55.912Z,13.52
2022-12-20T14:15:54.471Z,14.15
2022-12-20T14:18:26.121Z,13.77
2022-12-20T14:20:56.829Z,11.57
2022-12-20T14:23:28.217Z,16.42
2022-12-20T14:25:59.381Z,11.63
2022-12-20T14:28:32.321Z,15.45
2022-12-20T14:31:04.907Z,11.98
2022-12-20T14:33:39.109Z,11.13
2022-12-20T14:36:19.260Z,14.23
2022-12-20T14:38:49.699Z,12.25
2022-12-20T14:41:35.534Z,19.88
2022-12-20T14:44:15.317Z,36.90
2022-12-20T14:46:50.512Z,13.63
2022-12-20T14:49:25.762Z,15.82
2022-12-20T14:52:06.707Z,11.98
2022-12-20T14:57:27.833Z,12.57
2022-12-20T15:00:07.264Z,13.18
2022-12-20T15:02:40.924Z,13.90
2022-12-20T15:05:48.783Z,11.88
2022-12-20T15:08:19.685Z,10.32
2022-12-20T15:10:57.465Z,14.85
2022-12-20T15:13:30.097Z,11.43
2022-12-20T15:16:01.045Z,9.32
2022-12-20T15:18:29.815Z,14.82
2022-12-20T15:21:15.415Z,16.48
2022-12-20T15:23:47.607Z,14.25
2022-12-20T15:26:17.592Z,13.88
2022-12-20T15:28:47.285Z,12.68
2022-12-20T15:31:18.923Z,12.48
2022-12-20T15:33:48.324Z,17.42
2022-12-20T15:36:20.664Z,14.55
2022-12-20T15:41:38.857Z,15.18
2022-12-20T15:44:12.580Z,13.65
2022-12-20T15:46:44.651Z,18.15
2022-12-20T15:49:16.685Z,14.88
2022-12-20T15:51:49.418Z,15.70
2022-12-20T15:54:27.516Z,14.60
2022-12-20T15:56:57.613Z,13.68
2022-12-20T16:02:23.372Z,15.00
2022-12-20T16:04:52.097Z,13.07
2022-12-20T16:07:22.646Z,16.00
2022-12-20T16:09:51.604Z,16.52
2022-12-20T16:12:24.932Z,12.73
2022-12-20T16:14:54.138Z,16.88
2022-12-20T16:17:22.930Z,14.68
2022-12-20T16:19:51.504Z,13.95
2022-12-20T16:22:23.767Z,13.73
2022-12-20T16:24:52.965Z,12.85
2022-12-20T16:27:21.782Z,15.35
2022-12-20T16:29:50.310Z,14.25
2022-12-20T16:32:21.964Z,13.13
2022-12-20T16:34:51.628Z,13.18
2022-12-20T16:37:20.611Z,13.30
2022-12-20T16:39:50.903Z,16.10
2022-12-20T16:42:22.435Z,16.35
2022-12-20T16:44:53.172Z,18.15
2022-12-20T16:47:22.055Z,16.63
2022-12-20T16:49:53.344Z,14.85
2022-12-20T16:52:23.790Z,14.48
2022-12-20T16:54:53.978Z,15.23
2022-12-20T16:57:22.517Z,20.67
2022-12-20T16:59:50.972Z,13.32
2022-12-20T17:02:26.930Z,15.45
2022-12-20T17:04:55.942Z,18.35
2022-12-20T17:07:24.976Z,17.80
2022-12-20T17:10:10.981Z,15.95
2022-12-20T17:12:41.139Z,14.98
2022-12-20T17:15:18.062Z,20.20
2022-12-20T17:17:49.978Z,15.88
2022-12-20T17:20:24.151Z,13.50
2022-12-20T17:22:56.218Z,18.42
2022-12-20T17:25:29.311Z,17.40
2022-12-20T17:27:57.985Z,18.27
2022-12-20T17:30:27.347Z,17.85
2022-12-20T17:32:55.951Z,14.98
2022-12-20T17:35:28.166Z,21.20
2022-12-20T17:37:58.051Z,22.17
2022-12-20T17:40:30.478Z,17.65
2022-12-20T17:42:58.942Z,18.63
2022-12-20T17:45:30.633Z,18.88
2022-12-20T17:48:00.082Z,18.15
2022-12-20T17:50:28.981Z,15.00
2022-12-20T17:52:57.425Z,16.98
2022-12-20T17:55:29.331Z,21.15
2022-12-20T17:57:58.602Z,19.52
2022-12-20T18:00:36.393Z,15.63
2022-12-20T18:03:07.650Z,16.17
2022-12-20T18:05:36.603Z,16.23
2022-12-20T18:08:05.210Z,17.05
2022-12-20T18:10:35.369Z,16.92
2022-12-20T18:13:03.893Z,18.95
2022-12-20T18:15:32.481Z,21.40
2022-12-20T18:18:00.937Z,19.58
2022-12-20T18:20:29.513Z,17.63
2022-12-20T18:22:58.075Z,17.23
2022-12-20T18:25:26.930Z,16.90
2022-12-20T18:27:57.149Z,19.73
2022-12-20T18:30:25.680Z,13.07
2022-12-20T18:32:54.212Z,18.98
2022-12-20T18:35:22.755Z,16.17
2022-12-20T18:37:51.770Z,15.57
2022-12-20T18:40:20.396Z,18.50
2022-12-20T18:42:48.874Z,17.73
2022-12-20T18:47:47.277Z,18.17
2022-12-20T18:50:15.825Z,21.50
2022-12-20T18:52:46.973Z,18.45
2022-12-20T18:55:16.024Z,19.92
2022-12-20T18:57:44.527Z,18.60
2022-12-20T19:00:14.463Z,23.40
2022-12-20T19:02:44.713Z,23.02
2022-12-20T19:05:16.520Z,25.38
2022-12-20T19:07:45.131Z,23.75
2022-12-20T19:10:13.597Z,19.65
2022-12-20T19:12:42.198Z,25.63
2022-12-20T19:15:11.360Z,27.00
2022-12-20T19:17:39.762Z,24.70
2022-12-20T19:20:19.956Z,23.95
2022-12-20T19:22:48.548Z,19.55
2022-12-20T19:25:17.053Z,19.83
2022-12-20T19:27:45.514Z,22.27
2022-12-20T19:30:14.308Z,23.02
2022-12-20T19:32:42.801Z,25.17
2022-12-20T19:35:52.706Z,23.13
2022-12-20T19:38:01.684Z,22.88
2022-12-20T19:40:30.264Z,26.63
2022-12-20T19:42:58.821Z,22.90
2022-12-20T19:45:28.326Z,20.58
2022-12-20T19:47:56.792Z,26.17
2022-12-20T19:50:26.720Z,23.70
2022-12-20T19:52:55.430Z,27.17
2022-12-20T19:55:23.860Z,28.63
2022-12-20T19:57:52.550Z,25.95
2022-12-20T20:00:21.703Z,27.27
2022-12-20T20:02:50.558Z,20.35
2022-12-20T20:05:19.254Z,22.48
2022-12-20T20:07:51.668Z,22.05
2022-12-20T20:10:20.219Z,24.40
2022-12-20T20:12:51.911Z,25.17
2022-12-20T20:15:20.386Z,28.05
2022-12-20T20:17:48.866Z,30.25
2022-12-20T20:20:17.451Z,26.08
2022-12-20T20:22:46.045Z,31.98
2022-12-20T20:25:16.186Z,32.20
2022-12-20T20:27:44.754Z,25.35
2022-12-20T20:30:15.320Z,36.58
2022-12-20T20:32:44.939Z,33.08
2022-12-20T20:35:13.433Z,24.33
2022-12-20T20:37:42.539Z,27.20
2022-12-20T20:40:12.284Z,23.40
2022-12-20T20:42:42.550Z,29.50
2022-12-20T20:45:12.005Z,24.45
2022-12-20T20:47:40.367Z,32.25
2022-12-20T20:50:10.456Z,26.13
2022-12-20T20:52:38.875Z,26.38
2022-12-20T20:55:08.541Z,26.92
2022-12-20T20:57:36.952Z,26.42
2022-12-20T21:00:08.871Z,27.88
2022-12-20T21:02:37.518Z,25.05
2022-12-20T21:05:59.225Z,30.45
2022-12-20T21:07:56.483Z,24.38
2022-12-20T21:10:27.282Z,33.10
2022-12-20T21:12:56.610Z,29.00
2022-12-20T21:15:28.121Z,24.75
2022-12-20T21:18:01.611Z,30.40
2022-12-20T21:20:30.390Z,25.50
2022-12-20T21:22:59.311Z,25.92
2022-12-20T21:25:27.726Z,28.13
2022-12-20T21:27:57.363Z,23.98
2022-12-20T21:30:27.658Z,29.58
2022-12-20T21:32:56.199Z,35.60
2022-12-20T21:35:24.840Z,35.10
2022-12-20T21:37:53.686Z,42.03
2022-12-20T21:40:22.293Z,30.30
2022-12-20T21:42:50.623Z,38.17
2022-12-20T21:47:49.824Z,29.88
2022-12-20T21:50:19.514Z,31.77
2022-12-20T21:52:48.126Z,25.70
2022-12-20T21:55:16.704Z,32.80
2022-12-20T21:57:48.367Z,24.10
2022-12-20T22:00:17.788Z,32.42
2022-12-20T22:02:47.296Z,30.25
2022-12-20T22:05:18.000Z,31.58
2022-12-20T22:07:47.557Z,32.38
2022-12-20T22:10:17.513Z,31.08
2022-12-20T22:12:47.834Z,40.35
2022-12-20T22:15:16.329Z,34.08
2022-12-20T22:17:45.136Z,20.85
2022-12-20T22:20:14.306Z,27.35
2022-12-20T22:22:47.659Z,27.55
2022-12-20T22:25:16.812Z,28.85
2022-12-20T22:27:45.190Z,26.92
2022-12-20T22:32:42.373Z,37.20
2022-12-20T22:35:11.217Z,36.92
2022-12-20T22:37:39.576Z,34.75
2022-12-20T22:42:41.081Z,38.63
2022-12-20T22:45:10.810Z,32.55
2022-12-20T22:47:41.244Z,32.78
2022-12-20T22:50:10.919Z,34.80
2022-12-20T22:52:39.363Z,35.40
2022-12-20T22:55:10.257Z,34.55
2022-12-20T22:57:38.805Z,34.85
2022-12-20T23:00:13.287Z,27.90
2022-12-20T23:02:42.281Z,34.38
2022-12-20T23:05:11.179Z,32.83
2022-12-20T23:07:39.560Z,27.23
2022-12-20T23:13:15.719Z,24.75
2022-12-20T23:15:44.639Z,29.48
2022-12-20T23:18:13.089Z,20.25
2022-12-20T23:23:27.195Z,22.45
2022-12-20T23:28:25.458Z,27.13
2022-12-20T23:30:54.070Z,27.10
2022-12-20T23:33:22.480Z,30.90
2022-12-20T23:38:26.296Z,25.75
2022-12-20T23:40:56.188Z,27.85
2022-12-20T23:43:24.659Z,34.22
2022-12-20T23:45:53.182Z,36.45
2022-12-20T23:48:21.729Z,26.73
2022-12-20T23:50:56.710Z,30.33
2022-12-20T23:53:25.280Z,32.50
2022-12-20T23:56:06.269Z,26.55
2022-12-20T23:58:35.140Z,30.00
